createdAt,value
2022-10-19T00:01:12.958Z,21.90
2022-10-19T00:03:41.506Z,21.90
2022-10-19T00:06:17.252Z,21.90
2022-10-19T00:08:45.125Z,22.00
2022-10-19T00:11:13.683Z,22.00
2022-10-19T00:13:44.199Z,22.10
2022-10-19T00:16:13.406Z,22.10
2022-10-19T00:18:41.574Z,22.20
2022-10-19T00:21:10.788Z,22.20
2022-10-19T00:23:38.393Z,22.30
2022-10-19T00:26:06.896Z,22.40
2022-10-19T00:28:34.561Z,22.40
2022-10-19T00:31:06.530Z,22.40
2022-10-19T00:33:35.279Z,22.50
2022-10-19T00:36:03.121Z,22.60
2022-10-19T00:38:30.687Z,22.60
2022-10-19T00:40:59.120Z,22.70
2022-10-19T00:43:28.707Z,22.70
2022-10-19T00:45:57.107Z,22.80
2022-10-19T00:48:33.808Z,22.80
2022-10-19T00:51:01.441Z,22.90
2022-10-19T00:53:30.515Z,23.00
2022-10-19T00:55:59.055Z,23.00
2022-10-19T00:58:26.867Z,23.10
2022-10-19T01:00:54.397Z,23.10
2022-10-19T01:03:22.815Z,23.20
2022-10-19T01:05:50.497Z,23.30
2022-10-19T01:08:19.207Z,23.40
2022-10-19T01:11:00.363Z,23.50
2022-10-19T01:13:34.866Z,23.60
2022-10-19T01:16:05.565Z,23.60
2022-10-19T01:18:43.152Z,23.70
2022-10-19T01:21:13.987Z,23.80
2022-10-19T01:24:00.718Z,23.80
2022-10-19T01:26:47.659Z,23.90
2022-10-19T01:29:27.761Z,24.00
2022-10-19T01:32:03.182Z,24.10
2022-10-19T01:34:52.923Z,24.20
2022-10-19T01:37:28.267Z,24.30
2022-10-19T01:40:01.988Z,24.40
2022-10-19T01:42:35.442Z,24.50
2022-10-19T01:45:06.098Z,24.60
2022-10-19T01:47:37.987Z,24.60
2022-10-19T01:50:24.939Z,24.70
2022-10-19T01:52:54.333Z,24.70
2022-10-19T01:55:23.303Z,24.80
2022-10-19T01:58:08.224Z,24.90
2022-10-19T02:00:39.489Z,25.00
2022-10-19T02:03:07.799Z,25.10
2022-10-19T02:05:37.182Z,25.10
2022-10-19T02:08:07.466Z,25.20
2022-10-19T02:10:39.873Z,25.30
2022-10-19T02:13:08.496Z,25.40
2022-10-19T02:15:39.762Z,25.50
2022-10-19T02:18:18.042Z,25.60
2022-10-19T02:20:48.760Z,25.60
2022-10-19T02:23:49.298Z,25.70
2022-10-19T02:26:19.600Z,25.90
2022-10-19T02:28:48.444Z,25.90
2022-10-19T02:31:16.964Z,26.00
2022-10-19T02:33:44.845Z,26.10
2022-10-19T02:36:12.412Z,26.20
2022-10-19T02:38:41.873Z,26.20
2022-10-19T02:41:11.565Z,26.30
2022-10-19T02:43:42.672Z,26.30
2022-10-19T02:46:22.661Z,26.40
2022-10-19T02:49:06.813Z,26.50
2022-10-19T02:51:58.349Z,26.50
2022-10-19T02:54:29.198Z,26.50
2022-10-19T02:56:57.229Z,26.60
2022-10-19T02:59:25.440Z,26.60
2022-10-19T03:01:53.500Z,26.70
2022-10-19T03:04:21.079Z,26.70
2022-10-19T03:06:48.680Z,26.70
2022-10-19T03:09:17.290Z,26.70
2022-10-19T03:11:44.899Z,26.80
2022-10-19T03:14:13.737Z,26.80
2022-10-19T03:16:48.060Z,26.80
2022-10-19T03:19:16.762Z,26.80
2022-10-19T03:21:44.347Z,26.90
2022-10-19T03:24:15.456Z,27.10
2022-10-19T03:26:43.366Z,27.00
2022-10-19T03:29:10.954Z,27.10
2022-10-19T03:31:41.147Z,27.10
2022-10-19T03:34:09.490Z,27.20
2022-10-19T03:36:47.825Z,27.30
2022-10-19T03:39:20.195Z,27.30
2022-10-19T03:41:56.934Z,27.40
2022-10-19T03:44:25.746Z,27.40
2022-10-19T03:46:54.243Z,27.40
2022-10-19T03:49:23.276Z,27.50
2022-10-19T03:51:53.748Z,27.50
2022-10-19T03:54:25.020Z,27.50
2022-10-19T03:56:56.602Z,27.50
2022-10-19T03:59:26.057Z,27.50
2022-10-19T04:01:53.624Z,27.50
2022-10-19T04:04:21.320Z,27.60
2022-10-19T04:06:51.850Z,27.60
2022-10-19T04:09:21.681Z,27.70
2022-10-19T04:11:50.534Z,27.80
2022-10-19T04:14:31.730Z,27.80
2022-10-19T04:20:28.807Z,27.80
2022-10-19T04:22:58.127Z,27.80
2022-10-19T04:25:26.632Z,27.80
2022-10-19T04:27:54.263Z,27.80
2022-10-19T04:30:22.597Z,27.90
2022-10-19T04:32:50.296Z,28.00
2022-10-19T04:35:33.436Z,28.00
2022-10-19T04:38:01.527Z,28.00
2022-10-19T04:40:29.712Z,28.10
2022-10-19T04:42:58.488Z,28.10
2022-10-19T04:45:26.612Z,28.20
2022-10-19T04:47:56.764Z,28.20
2022-10-19T04:50:26.245Z,28.30
2022-10-19T04:52:54.710Z,28.40
2022-10-19T04:55:25.228Z,28.40
2022-10-19T04:57:52.849Z,28.50
2022-10-19T05:00:21.283Z,28.50
2022-10-19T05:02:50.440Z,28.50
2022-10-19T05:05:18.867Z,28.60
2022-10-19T05:07:46.500Z,28.60
2022-10-19T05:10:14.529Z,28.70
2022-10-19T05:12:42.377Z,28.70
2022-10-19T05:15:11.103Z,28.70
2022-10-19T05:17:38.833Z,28.70
2022-10-19T05:20:06.823Z,28.70
2022-10-19T05:22:34.464Z,28.70
2022-10-19T05:25:02.556Z,28.60
2022-10-19T05:27:30.166Z,28.70
2022-10-19T05:29:57.745Z,28.60
2022-10-19T05:32:25.274Z,28.70
2022-10-19T05:34:53.785Z,28.70
2022-10-19T05:37:22.865Z,28.80
2022-10-19T05:39:51.267Z,28.80
2022-10-19T05:42:19.727Z,28.90
2022-10-19T05:44:47.305Z,28.90
2022-10-19T05:47:16.251Z,29.00
2022-10-19T05:49:51.028Z,29.00
2022-10-19T05:52:19.244Z,29.00
2022-10-19T05:57:35.802Z,29.10
2022-10-19T06:00:06.815Z,29.00
2022-10-19T06:02:34.891Z,29.10
2022-10-19T06:05:03.275Z,29.00
2022-10-19T06:07:32.061Z,29.10
2022-10-19T06:10:00.417Z,29.10
2022-10-19T06:12:28.111Z,29.10
2022-10-19T06:14:57.013Z,29.10
2022-10-19T06:17:24.587Z,29.20
2022-10-19T06:19:52.342Z,29.20
2022-10-19T06:22:19.878Z,29.30
2022-10-19T06:24:47.437Z,29.30
2022-10-19T06:27:15.396Z,29.30
2022-10-19T06:29:43.927Z,29.30
2022-10-19T06:32:12.345Z,29.30
2022-10-19T06:34:40.199Z,29.30
2022-10-19T06:37:08.653Z,29.30
2022-10-19T06:39:36.294Z,29.30
2022-10-19T06:42:03.890Z,29.30
2022-10-19T06:44:31.474Z,29.30
2022-10-19T06:46:59.845Z,29.30
2022-10-19T06:49:28.157Z,29.30
2022-10-19T06:51:55.694Z,29.30
2022-10-19T06:54:26.611Z,29.30
2022-10-19T06:56:54.178Z,29.30
2022-10-19T06:59:23.122Z,29.30
2022-10-19T07:01:52.226Z,29.40
2022-10-19T07:04:21.154Z,29.40
2022-10-19T07:06:48.823Z,29.40
2022-10-19T07:09:17.336Z,29.40
2022-10-19T07:11:46.398Z,29.50
2022-10-19T07:14:14.059Z,29.40
2022-10-19T07:16:41.704Z,29.40
2022-10-19T07:19:10.636Z,29.40
2022-10-19T07:21:42.522Z,29.40
2022-10-19T07:24:13.883Z,29.50
2022-10-19T07:26:41.478Z,29.50
2022-10-19T07:29:12.214Z,29.50
2022-10-19T07:31:40.563Z,29.50
2022-10-19T07:34:08.623Z,29.50
2022-10-19T07:36:37.615Z,29.50
2022-10-19T07:39:06.637Z,29.50
2022-10-19T07:41:37.148Z,29.50
2022-10-19T07:44:05.446Z,29.50
2022-10-19T07:46:37.519Z,29.50
2022-10-19T07:49:07.347Z,29.40
2022-10-19T07:51:34.957Z,29.40
2022-10-19T07:54:10.988Z,29.40
2022-10-19T07:56:39.937Z,29.40
2022-10-19T07:59:07.575Z,29.40
2022-10-19T08:01:37.317Z,29.40
2022-10-19T08:06:52.535Z,29.40
2022-10-19T08:09:47.170Z,29.40
2022-10-19T08:12:11.084Z,29.40
2022-10-19T08:14:41.588Z,29.40
2022-10-19T08:17:12.607Z,29.40
2022-10-19T08:19:44.193Z,29.40
2022-10-19T08:22:12.435Z,29.40
2022-10-19T08:24:40.012Z,29.40
2022-10-19T08:27:08.143Z,29.40
2022-10-19T08:29:37.172Z,29.40
2022-10-19T08:32:04.821Z,29.40
2022-10-19T08:34:34.861Z,29.40
2022-10-19T08:37:10.190Z,29.40
2022-10-19T08:39:47.639Z,29.40
2022-10-19T08:42:19.066Z,29.40
2022-10-19T08:44:51.212Z,29.40
2022-10-19T08:47:37.453Z,29.40
2022-10-19T08:50:15.298Z,29.40
2022-10-19T08:52:44.390Z,29.30
2022-10-19T08:55:18.157Z,29.30
2022-10-19T08:57:52.510Z,29.30
2022-10-19T09:00:35.962Z,29.30
2022-10-19T09:03:04.179Z,29.30
2022-10-19T09:05:50.623Z,29.20
2022-10-19T09:08:20.319Z,29.30
2022-10-19T09:10:49.406Z,29.20
2022-10-19T09:13:21.010Z,29.20
2022-10-19T09:15:49.716Z,29.20
2022-10-19T09:18:28.221Z,29.20
2022-10-19T09:21:16.317Z,29.20
2022-10-19T09:23:44.675Z,29.10
2022-10-19T09:26:23.095Z,29.10
2022-10-19T09:28:55.620Z,29.10
2022-10-19T09:31:31.731Z,29.10
2022-10-19T09:34:02.920Z,29.10
2022-10-19T09:36:50.044Z,29.00
2022-10-19T09:39:18.813Z,29.00
2022-10-19T09:41:48.732Z,29.00
2022-10-19T09:44:16.313Z,28.90
2022-10-19T09:47:08.038Z,28.90
2022-10-19T09:49:47.810Z,28.90
2022-10-19T09:52:36.339Z,28.90
2022-10-19T09:55:24.057Z,28.90
2022-10-19T09:57:52.440Z,28.80
2022-10-19T10:00:21.701Z,28.80
2022-10-19T10:02:52.124Z,28.70
2022-10-19T10:05:21.648Z,28.70
2022-10-19T10:07:54.997Z,28.70
2022-10-19T10:10:28.249Z,28.70
2022-10-19T10:13:01.305Z,28.60
2022-10-19T10:15:42.811Z,28.60
2022-10-19T10:18:17.959Z,28.60
2022-10-19T10:21:07.055Z,28.50
2022-10-19T10:23:36.983Z,28.50
2022-10-19T10:26:05.417Z,28.50
2022-10-19T10:28:33.113Z,28.40
2022-10-19T10:31:05.383Z,28.40
2022-10-19T10:33:46.232Z,28.40
2022-10-19T10:36:14.815Z,28.40
2022-10-19T10:38:54.143Z,28.30
2022-10-19T10:41:26.068Z,28.30
2022-10-19T10:44:02.283Z,28.20
2022-10-19T10:46:37.777Z,28.20
2022-10-19T10:49:07.934Z,28.10
2022-10-19T10:51:39.604Z,28.10
2022-10-19T10:54:17.330Z,28.10
2022-10-19T10:56:46.285Z,28.00
2022-10-19T10:59:16.971Z,28.00
2022-10-19T11:02:03.075Z,28.00
2022-10-19T11:04:35.460Z,28.00
2022-10-19T11:07:10.496Z,27.90
2022-10-19T11:09:42.723Z,27.90
2022-10-19T11:12:13.688Z,27.90
2022-10-19T11:14:50.409Z,27.80
2022-10-19T11:17:28.922Z,27.80
2022-10-19T11:19:56.659Z,27.80
2022-10-19T11:22:29.480Z,27.70
2022-10-19T11:25:16.528Z,27.70
2022-10-19T11:27:50.711Z,27.70
2022-10-19T11:30:23.363Z,27.60
2022-10-19T11:33:09.534Z,27.60
2022-10-19T11:35:50.735Z,27.60
2022-10-19T11:38:29.798Z,27.50
2022-10-19T11:41:17.843Z,27.50
2022-10-19T11:43:49.315Z,27.50
2022-10-19T11:46:29.755Z,27.50
2022-10-19T11:49:15.717Z,27.50
2022-10-19T11:51:59.199Z,27.40
2022-10-19T11:54:42.400Z,27.40
2022-10-19T11:57:18.825Z,27.30
2022-10-19T12:00:13.633Z,27.30
2022-10-19T12:03:03.807Z,27.20
2022-10-19T12:05:35.364Z,27.20
2022-10-19T12:08:09.566Z,27.10
2022-10-19T12:10:38.031Z,27.00
2022-10-19T12:13:09.334Z,26.90
2022-10-19T12:15:40.927Z,26.90
2022-10-19T12:18:18.479Z,26.80
2022-10-19T12:20:50.538Z,26.80
2022-10-19T12:23:18.028Z,26.80
2022-10-19T12:25:46.706Z,26.70
2022-10-19T12:28:21.860Z,26.60
2022-10-19T12:30:50.029Z,26.60
2022-10-19T12:33:21.156Z,26.60
2022-10-19T12:36:03.650Z,26.50
2022-10-19T12:38:46.133Z,26.50
2022-10-19T12:41:35.110Z,26.50
2022-10-19T12:46:53.150Z,26.50
2022-10-19T12:49:31.068Z,26.40
2022-10-19T12:52:00.416Z,26.40
2022-10-19T12:54:29.869Z,26.30
2022-10-19T12:56:58.645Z,26.40
2022-10-19T12:59:26.267Z,26.30
2022-10-19T13:01:54.337Z,26.30
2022-10-19T13:04:24.283Z,26.20
2022-10-19T13:07:00.431Z,26.20
2022-10-19T13:09:47.246Z,26.20
2022-10-19T13:12:21.947Z,26.10
2022-10-19T13:14:56.589Z,26.10
2022-10-19T13:17:42.612Z,26.10
2022-10-19T13:20:19.352Z,26.10
2022-10-19T13:23:05.282Z,26.10
2022-10-19T13:25:33.633Z,26.00
2022-10-19T13:28:02.631Z,26.00
2022-10-19T13:30:39.879Z,26.00
2022-10-19T13:33:26.334Z,26.00
2022-10-19T13:36:00.820Z,25.90
2022-10-19T13:38:30.009Z,25.80
2022-10-19T13:41:00.866Z,25.80
2022-10-19T13:43:33.391Z,25.80
2022-10-19T13:46:19.290Z,25.80
2022-10-19T13:49:06.000Z,25.80
2022-10-19T13:51:51.980Z,25.80
2022-10-19T13:54:34.924Z,25.80
2022-10-19T13:57:05.992Z,25.70
2022-10-19T13:59:43.591Z,25.70
2022-10-19T14:02:14.218Z,25.70
2022-10-19T14:04:45.453Z,25.70
2022-10-19T14:07:25.504Z,25.70
2022-10-19T14:10:05.446Z,25.70
2022-10-19T14:12:35.474Z,25.70
2022-10-19T14:15:13.012Z,25.70
2022-10-19T14:17:43.706Z,25.70
2022-10-19T14:20:29.676Z,25.70
2022-10-19T14:22:57.596Z,25.70
2022-10-19T14:25:30.504Z,25.70
2022-10-19T14:28:02.520Z,25.70
2022-10-19T14:30:35.143Z,25.70
2022-10-19T14:33:08.607Z,25.70
2022-10-19T14:35:40.758Z,25.70
2022-10-19T14:38:09.684Z,25.70
2022-10-19T14:40:42.531Z,25.70
2022-10-19T14:43:29.359Z,25.80
2022-10-19T14:46:03.989Z,25.80
2022-10-19T14:48:32.378Z,25.70
2022-10-19T14:51:00.838Z,25.80
2022-10-19T14:53:44.083Z,25.80
2022-10-19T14:56:11.916Z,25.80
2022-10-19T14:58:44.984Z,25.80
2022-10-19T15:01:12.863Z,25.80
2022-10-19T15:03:43.712Z,25.80
2022-10-19T15:06:28.047Z,25.80
2022-10-19T15:09:03.426Z,25.80
2022-10-19T15:11:34.351Z,25.80
2022-10-19T15:14:22.324Z,25.80
2022-10-19T15:16:50.673Z,25.70
2022-10-19T15:19:19.943Z,25.70
2022-10-19T15:21:47.588Z,25.70
2022-10-19T15:24:28.557Z,25.70
2022-10-19T15:27:08.769Z,25.60
2022-10-19T15:29:36.927Z,25.60
2022-10-19T15:32:17.363Z,25.60
2022-10-19T15:34:47.047Z,25.60
2022-10-19T15:37:20.502Z,25.60
2022-10-19T15:39:48.514Z,25.60
2022-10-19T15:42:22.127Z,25.50
2022-10-19T15:44:50.850Z,25.50
2022-10-19T15:47:20.462Z,25.50
2022-10-19T15:49:58.004Z,25.50
2022-10-19T15:52:29.688Z,25.50
2022-10-19T15:54:58.450Z,25.40
2022-10-19T15:57:28.746Z,25.40
2022-10-19T15:59:57.467Z,25.40
2022-10-19T16:02:28.175Z,25.30
2022-10-19T16:04:55.887Z,25.30
2022-10-19T16:07:28.466Z,25.30
2022-10-19T16:09:56.902Z,25.30
2022-10-19T16:12:25.289Z,25.30
2022-10-19T16:14:54.060Z,25.20
2022-10-19T16:17:21.696Z,25.20
2022-10-19T16:19:49.499Z,25.10
2022-10-19T16:22:17.073Z,25.10
2022-10-19T16:24:45.363Z,25.10
2022-10-19T16:27:16.600Z,25.10
2022-10-19T16:29:44.853Z,25.10
2022-10-19T16:32:12.667Z,25.00
2022-10-19T16:34:42.169Z,25.00
2022-10-19T16:37:09.724Z,25.00
2022-10-19T16:39:37.465Z,25.00
2022-10-19T16:42:05.274Z,25.00
2022-10-19T16:44:33.691Z,25.00
2022-10-19T16:47:01.281Z,24.90
2022-10-19T16:49:28.824Z,24.90
2022-10-19T16:51:57.668Z,24.90
2022-10-19T16:54:35.130Z,24.90
2022-10-19T16:57:05.888Z,24.80
2022-10-19T16:59:37.142Z,24.80
2022-10-19T17:02:04.769Z,24.80
2022-10-19T17:04:32.590Z,24.80
2022-10-19T17:07:00.170Z,24.70
2022-10-19T17:09:41.431Z,24.70
2022-10-19T17:12:10.284Z,24.70
2022-10-19T17:14:39.836Z,24.60
2022-10-19T17:17:07.709Z,24.60
2022-10-19T17:19:36.868Z,24.60
2022-10-19T17:22:05.398Z,24.60
2022-10-19T17:24:33.951Z,24.60
2022-10-19T17:27:03.188Z,24.50
2022-10-19T17:29:31.570Z,24.50
2022-10-19T17:31:59.371Z,24.50
2022-10-19T17:34:28.445Z,24.50
2022-10-19T17:36:56.015Z,24.50
2022-10-19T17:39:27.468Z,24.50
2022-10-19T17:42:01.918Z,24.50
2022-10-19T17:44:31.850Z,24.40
2022-10-19T17:46:59.948Z,24.50
2022-10-19T17:49:28.410Z,24.40
2022-10-19T17:51:56.170Z,24.40
2022-10-19T17:54:24.643Z,24.40
2022-10-19T17:56:52.219Z,24.40
2022-10-19T17:59:30.351Z,24.40
2022-10-19T18:02:03.877Z,24.30
2022-10-19T18:04:31.609Z,24.30
2022-10-19T18:06:59.308Z,24.30
2022-10-19T18:09:27.263Z,24.30
2022-10-19T18:11:55.772Z,24.30
2022-10-19T18:14:23.464Z,24.20
2022-10-19T18:16:54.179Z,24.20
2022-10-19T18:19:22.581Z,24.20
2022-10-19T18:21:50.201Z,24.10
2022-10-19T18:24:20.383Z,24.10
2022-10-19T18:26:52.123Z,24.00
2022-10-19T18:29:21.894Z,24.00
2022-10-19T18:31:51.878Z,24.00
2022-10-19T18:34:23.627Z,23.90
2022-10-19T18:36:51.465Z,23.90
2022-10-19T18:39:19.432Z,23.90
2022-10-19T18:41:49.081Z,23.90
2022-10-19T18:44:19.889Z,23.80
2022-10-19T18:46:49.516Z,23.80
2022-10-19T18:49:17.393Z,23.80
2022-10-19T18:51:50.813Z,23.70
2022-10-19T18:54:21.882Z,23.70
2022-10-19T18:56:49.569Z,23.70
2022-10-19T18:59:17.316Z,23.70
2022-10-19T19:01:45.523Z,23.60
2022-10-19T19:04:13.386Z,23.60
2022-10-19T19:06:41.116Z,23.70
2022-10-19T19:09:10.914Z,23.60
2022-10-19T19:11:41.169Z,23.60
2022-10-19T19:14:15.377Z,23.60
2022-10-19T19:16:43.761Z,23.50
2022-10-19T19:19:14.166Z,23.50
2022-10-19T19:21:44.559Z,23.50
2022-10-19T19:24:17.914Z,23.50
2022-10-19T19:26:48.551Z,23.50
2022-10-19T19:29:16.607Z,23.50
2022-10-19T19:31:44.152Z,23.40
2022-10-19T19:34:11.845Z,23.40
2022-10-19T19:39:16.224Z,23.30
2022-10-19T19:41:44.258Z,23.40
2022-10-19T19:44:11.772Z,23.30
2022-10-19T19:46:39.352Z,23.30
2022-10-19T19:49:06.883Z,23.30
2022-10-19T19:51:35.386Z,23.30
2022-10-19T19:54:03.210Z,23.30
2022-10-19T19:56:31.945Z,23.30
2022-10-19T19:59:03.989Z,23.30
2022-10-19T20:01:31.569Z,23.30
2022-10-19T20:04:00.272Z,23.20
2022-10-19T20:06:28.015Z,23.20
2022-10-19T20:08:56.691Z,23.20
2022-10-19T20:11:26.710Z,23.10
2022-10-19T20:13:54.322Z,23.10
2022-10-19T20:16:26.659Z,23.10
2022-10-19T20:18:59.591Z,23.10
2022-10-19T20:21:27.970Z,23.10
2022-10-19T20:23:55.566Z,23.10
2022-10-19T20:26:24.440Z,23.10
2022-10-19T20:28:52.191Z,23.10
2022-10-19T20:31:20.120Z,23.10
2022-10-19T20:33:48.183Z,23.10
2022-10-19T20:36:16.572Z,23.10
2022-10-19T20:38:48.802Z,23.00
2022-10-19T20:41:20.438Z,23.00
2022-10-19T20:43:48.405Z,23.00
2022-10-19T20:46:22.781Z,23.00
2022-10-19T20:48:52.010Z,23.00
2022-10-19T20:51:30.910Z,23.00
2022-10-19T20:54:00.238Z,22.90
2022-10-19T20:56:28.863Z,23.00
2022-10-19T20:58:57.565Z,22.90
2022-10-19T21:01:25.541Z,23.00
2022-10-19T21:03:54.190Z,23.00
2022-10-19T21:06:22.896Z,23.00
2022-10-19T21:08:51.132Z,23.00
2022-10-19T21:11:23.202Z,23.00
2022-10-19T21:13:54.797Z,23.00
2022-10-19T21:16:23.410Z,22.90
2022-10-19T21:18:51.312Z,23.00
2022-10-19T21:21:20.767Z,23.00
2022-10-19T21:23:50.940Z,22.90
2022-10-19T21:26:19.140Z,23.00
2022-10-19T21:28:51.417Z,22.90
2022-10-19T21:31:19.105Z,22.90
2022-10-19T21:33:46.698Z,22.90
2022-10-19T21:36:16.116Z,22.80
2022-10-19T21:38:44.873Z,22.80
2022-10-19T21:41:13.627Z,22.80
2022-10-19T21:43:42.265Z,22.80
2022-10-19T21:46:13.253Z,22.80
2022-10-19T21:48:40.901Z,22.70
2022-10-19T21:51:17.627Z,22.70
2022-10-19T21:53:46.936Z,22.70
2022-10-19T21:56:15.994Z,22.70
2022-10-19T21:58:47.573Z,22.70
2022-10-19T22:01:16.086Z,22.70
2022-10-19T22:03:43.741Z,22.70
2022-10-19T22:06:11.791Z,22.70
2022-10-19T22:08:40.121Z,22.70
2022-10-19T22:11:09.152Z,22.60
2022-10-19T22:13:38.983Z,22.60
2022-10-19T22:16:07.525Z,22.60
2022-10-19T22:18:36.181Z,22.60
2022-10-19T22:21:08.269Z,22.60
2022-10-19T22:23:37.221Z,22.60
2022-10-19T22:26:18.822Z,22.70
2022-10-19T22:28:47.203Z,22.70
2022-10-19T22:31:16.282Z,22.80
2022-10-19T22:33:44.251Z,22.80
2022-10-19T22:36:14.100Z,22.80
2022-10-19T22:38:41.829Z,22.80
2022-10-19T22:41:09.543Z,22.80
2022-10-19T22:43:37.404Z,22.90
2022-10-19T22:46:05.757Z,22.90
2022-10-19T22:48:34.218Z,22.90
2022-10-19T22:51:01.753Z,22.90
2022-10-19T22:53:30.161Z,22.90
2022-10-19T22:55:58.137Z,22.90
2022-10-19T22:58:25.744Z,22.90
2022-10-19T23:01:04.932Z,22.90
2022-10-19T23:03:33.489Z,22.90
2022-10-19T23:06:01.068Z,22.90
2022-10-19T23:08:28.750Z,22.90
2022-10-19T23:10:56.661Z,22.90
2022-10-19T23:13:25.059Z,23.00
2022-10-19T23:15:52.632Z,22.90
2022-10-19T23:18:20.318Z,23.00
2022-10-19T23:20:57.528Z,23.00
2022-10-19T23:23:25.434Z,22.90
2022-10-19T23:26:00.070Z,22.90
2022-10-19T23:28:28.172Z,22.90
2022-10-19T23:30:59.806Z,22.90
2022-10-19T23:33:27.568Z,22.90
2022-10-19T23:35:55.455Z,22.90
2022-10-19T23:38:23.332Z,22.90
2022-10-19T23:40:51.142Z,22.90
2022-10-19T23:43:18.715Z,22.90
2022-10-19T23:45:47.230Z,22.90
2022-10-19T23:48:14.995Z,22.90
2022-10-19T23:50:43.283Z,22.90
2022-10-19T23:53:10.855Z,22.90
2022-10-19T23:55:38.428Z,22.90
2022-10-19T23:58:06.818Z,22.90
